sensor_id;sensor_type;location;lat;lon;timestamp;P1;durP1;ratioP1;P2;durP2;ratioP2
72354;SDS011;60314;55.040;73.076;2023-05-07T00:01:20;38.70;;;15.02;;
72354;SDS011;60314;55.040;73.076;2023-05-07T00:06:42;29.85;;;12.00;;
72354;SDS011;60314;55.040;73.076;2023-05-07T00:12:01;33.45;;;14.75;;
72354;SDS011;60314;55.040;73.076;2023-05-07T00:17:21;35.40;;;14.20;;
72354;SDS011;60314;55.040;73.076;2023-05-07T00:22:42;37.13;;;12.85;;
72354;SDS011;60314;55.040;73.076;2023-05-07T00:28:01;45.47;;;16.92;;
72354;SDS011;60314;55.040;73.076;2023-05-07T00:33:23;43.90;;;15.88;;
72354;SDS011;60314;55.040;73.076;2023-05-07T00:38:42;47.08;;;16.42;;
72354;SDS011;60314;55.040;73.076;2023-05-07T00:43:44;62.00;;;24.65;;
72354;SDS011;60314;55.040;73.076;2023-05-07T00:49:04;50.10;;;19.33;;
72354;SDS011;60314;55.040;73.076;2023-05-07T00:54:25;58.00;;;25.50;;
72354;SDS011;60314;55.040;73.076;2023-05-07T00:59:45;47.10;;;21.30;;
72354;SDS011;60314;55.040;73.076;2023-05-07T01:05:05;49.97;;;21.45;;
72354;SDS011;60314;55.040;73.076;2023-05-07T01:10:32;42.80;;;18.52;;
72354;SDS011;60314;55.040;73.076;2023-05-07T01:15:52;49.00;;;20.02;;
72354;SDS011;60314;55.040;73.076;2023-05-07T01:21:12;45.75;;;21.38;;
72354;SDS011;60314;55.040;73.076;2023-05-07T01:26:36;44.60;;;19.27;;
72354;SDS011;60314;55.040;73.076;2023-05-07T01:31:57;44.08;;;19.85;;
72354;SDS011;60314;55.040;73.076;2023-05-07T01:37:20;44.55;;;20.52;;
72354;SDS011;60314;55.040;73.076;2023-05-07T01:42:41;36.83;;;19.10;;
72354;SDS011;60314;55.040;73.076;2023-05-07T01:47:44;47.13;;;18.37;;
72354;SDS011;60314;55.040;73.076;2023-05-07T01:52:47;30.17;;;16.55;;
72354;SDS011;60314;55.040;73.076;2023-05-07T01:58:09;36.20;;;16.38;;
72354;SDS011;60314;55.040;73.076;2023-05-07T02:03:30;44.03;;;16.15;;
72354;SDS011;60314;55.040;73.076;2023-05-07T02:08:59;33.60;;;13.93;;
72354;SDS011;60314;55.040;73.076;2023-05-07T02:14:19;35.45;;;13.95;;
72354;SDS011;60314;55.040;73.076;2023-05-07T02:19:39;31.90;;;14.43;;
72354;SDS011;60314;55.040;73.076;2023-05-07T02:25:00;36.50;;;14.65;;
72354;SDS011;60314;55.040;73.076;2023-05-07T02:30:20;38.35;;;15.30;;
72354;SDS011;60314;55.040;73.076;2023-05-07T02:35:42;35.38;;;15.32;;
72354;SDS011;60314;55.040;73.076;2023-05-07T02:41:06;47.63;;;15.02;;
72354;SDS011;60314;55.040;73.076;2023-05-07T02:46:27;35.03;;;13.48;;
72354;SDS011;60314;55.040;73.076;2023-05-07T02:51:53;34.45;;;13.48;;
72354;SDS011;60314;55.040;73.076;2023-05-07T02:56:58;31.27;;;12.18;;
72354;SDS011;60314;55.040;73.076;2023-05-07T03:02:02;34.53;;;12.55;;
72354;SDS011;60314;55.040;73.076;2023-05-07T03:07:22;25.38;;;12.43;;
72354;SDS011;60314;55.040;73.076;2023-05-07T03:12:45;34.22;;;11.95;;
72354;SDS011;60314;55.040;73.076;2023-05-07T03:18:09;29.83;;;11.35;;
72354;SDS011;60314;55.040;73.076;2023-05-07T03:23:29;28.65;;;11.60;;
72354;SDS011;60314;55.040;73.076;2023-05-07T03:28:49;36.25;;;11.68;;
72354;SDS011;60314;55.040;73.076;2023-05-07T03:34:10;30.92;;;10.65;;
72354;SDS011;60314;55.040;73.076;2023-05-07T03:39:30;27.87;;;10.30;;
72354;SDS011;60314;55.040;73.076;2023-05-07T03:44:53;24.38;;;8.50;;
72354;SDS011;60314;55.040;73.076;2023-05-07T03:50:14;29.42;;;9.38;;
72354;SDS011;60314;55.040;73.076;2023-05-07T03:55:38;22.37;;;9.89;;
72354;SDS011;60314;55.040;73.076;2023-05-07T04:00:58;19.58;;;9.02;;
72354;SDS011;60314;55.040;73.076;2023-05-07T04:06:03;19.43;;;7.60;;
72354;SDS011;60314;55.040;73.076;2023-05-07T04:11:25;15.85;;;6.80;;
72354;SDS011;60314;55.040;73.076;2023-05-07T04:16:46;13.98;;;6.05;;
72354;SDS011;60314;55.040;73.076;2023-05-07T04:22:07;14.65;;;5.28;;
72354;SDS011;60314;55.040;73.076;2023-05-07T04:27:29;19.67;;;6.25;;
72354;SDS011;60314;55.040;73.076;2023-05-07T04:32:50;10.38;;;5.05;;
72354;SDS011;60314;55.040;73.076;2023-05-07T04:38:10;13.27;;;6.10;;
72354;SDS011;60314;55.040;73.076;2023-05-07T04:43:30;10.70;;;4.40;;
72354;SDS011;60314;55.040;73.076;2023-05-07T04:48:50;12.60;;;4.50;;
72354;SDS011;60314;55.040;73.076;2023-05-07T04:54:11;14.15;;;4.65;;
72354;SDS011;60314;55.040;73.076;2023-05-07T04:59:31;11.52;;;4.55;;
72354;SDS011;60314;55.040;73.076;2023-05-07T05:04:52;16.25;;;4.88;;
72354;SDS011;60314;55.040;73.076;2023-05-07T05:09:58;9.17;;;4.67;;
72354;SDS011;60314;55.040;73.076;2023-05-07T05:15:18;8.45;;;4.30;;
72354;SDS011;60314;55.040;73.076;2023-05-07T05:20:38;6.57;;;4.13;;
72354;SDS011;60314;55.040;73.076;2023-05-07T05:25:59;7.10;;;5.20;;
72354;SDS011;60314;55.040;73.076;2023-05-07T05:31:23;7.93;;;4.28;;
72354;SDS011;60314;55.040;73.076;2023-05-07T05:36:44;9.30;;;4.73;;
72354;SDS011;60314;55.040;73.076;2023-05-07T05:42:07;6.90;;;4.45;;
72354;SDS011;60314;55.040;73.076;2023-05-07T05:47:29;7.75;;;4.80;;
72354;SDS011;60314;55.040;73.076;2023-05-07T05:52:50;7.97;;;4.50;;
72354;SDS011;60314;55.040;73.076;2023-05-07T05:58:11;8.13;;;4.47;;
72354;SDS011;60314;55.040;73.076;2023-05-07T06:03:36;7.75;;;4.40;;
72354;SDS011;60314;55.040;73.076;2023-05-07T06:09:00;8.07;;;4.65;;
72354;SDS011;60314;55.040;73.076;2023-05-07T06:14:09;12.48;;;5.90;;
72354;SDS011;60314;55.040;73.076;2023-05-07T06:19:11;8.15;;;4.65;;
72354;SDS011;60314;55.040;73.076;2023-05-07T06:24:32;5.22;;;4.65;;
72354;SDS011;60314;55.040;73.076;2023-05-07T06:29:52;5.97;;;4.40;;
72354;SDS011;60314;55.040;73.076;2023-05-07T06:35:12;6.32;;;4.68;;
72354;SDS011;60314;55.040;73.076;2023-05-07T06:40:33;6.63;;;4.87;;
72354;SDS011;60314;55.040;73.076;2023-05-07T06:45:54;12.80;;;4.70;;
72354;SDS011;60314;55.040;73.076;2023-05-07T06:51:14;6.95;;;4.80;;
72354;SDS011;60314;55.040;73.076;2023-05-07T06:56:34;9.55;;;4.60;;
72354;SDS011;60314;55.040;73.076;2023-05-07T07:01:56;6.78;;;3.97;;
72354;SDS011;60314;55.040;73.076;2023-05-07T07:07:25;6.19;;;4.40;;
72354;SDS011;60314;55.040;73.076;2023-05-07T07:12:46;7.97;;;4.47;;
72354;SDS011;60314;55.040;73.076;2023-05-07T07:18:07;4.70;;;4.00;;
72354;SDS011;60314;55.040;73.076;2023-05-07T07:23:09;7.85;;;4.60;;
72354;SDS011;60314;55.040;73.076;2023-05-07T07:28:10;7.50;;;4.43;;
72354;SDS011;60314;55.040;73.076;2023-05-07T07:33:13;8.75;;;5.18;;
72354;SDS011;60314;55.040;73.076;2023-05-07T07:38:16;6.40;;;3.65;;
72354;SDS011;60314;55.040;73.076;2023-05-07T07:43:36;8.55;;;3.58;;
72354;SDS011;60314;55.040;73.076;2023-05-07T07:48:56;5.10;;;3.70;;
72354;SDS011;60314;55.040;73.076;2023-05-07T07:54:19;7.28;;;3.50;;
72354;SDS011;60314;55.040;73.076;2023-05-07T07:59:39;4.88;;;3.10;;
72354;SDS011;60314;55.040;73.076;2023-05-07T08:05:00;7.93;;;2.90;;
72354;SDS011;60314;55.040;73.076;2023-05-07T08:10:22;10.57;;;2.78;;
72354;SDS011;60314;55.040;73.076;2023-05-07T08:15:47;6.57;;;2.50;;
72354;SDS011;60314;55.040;73.076;2023-05-07T08:21:08;8.10;;;2.50;;
72354;SDS011;60314;55.040;73.076;2023-05-07T08:26:29;7.50;;;2.67;;
72354;SDS011;60314;55.040;73.076;2023-05-07T08:31:49;5.90;;;2.23;;
72354;SDS011;60314;55.040;73.076;2023-05-07T08:42:11;15.55;;;2.30;;
72354;SDS011;60314;55.040;73.076;2023-05-07T08:47:34;6.70;;;2.22;;
72354;SDS011;60314;55.040;73.076;2023-05-07T08:53:04;5.40;;;1.80;;
72354;SDS011;60314;55.040;73.076;2023-05-07T08:58:24;7.03;;;2.03;;
72354;SDS011;60314;55.040;73.076;2023-05-07T09:03:45;9.02;;;1.88;;
72354;SDS011;60314;55.040;73.076;2023-05-07T09:09:07;7.45;;;2.03;;
72354;SDS011;60314;55.040;73.076;2023-05-07T09:14:27;9.27;;;2.05;;
72354;SDS011;60314;55.040;73.076;2023-05-07T09:19:48;8.77;;;2.00;;
72354;SDS011;60314;55.040;73.076;2023-05-07T09:25:09;9.45;;;2.00;;
72354;SDS011;60314;55.040;73.076;2023-05-07T09:30:31;7.03;;;2.10;;
72354;SDS011;60314;55.040;73.076;2023-05-07T09:35:54;5.82;;;1.95;;
72354;SDS011;60314;55.040;73.076;2023-05-07T09:41:15;6.70;;;2.00;;
72354;SDS011;60314;55.040;73.076;2023-05-07T09:46:39;7.47;;;1.88;;
72354;SDS011;60314;55.040;73.076;2023-05-07T09:52:10;6.47;;;2.17;;
72354;SDS011;60314;55.040;73.076;2023-05-07T09:57:37;6.82;;;1.77;;
72354;SDS011;60314;55.040;73.076;2023-05-07T10:03:01;8.97;;;2.00;;
72354;SDS011;60314;55.040;73.076;2023-05-07T10:08:37;13.90;;;2.13;;
72354;SDS011;60314;55.040;73.076;2023-05-07T10:14:03;6.30;;;1.80;;
72354;SDS011;60314;55.040;73.076;2023-05-07T10:19:27;14.55;;;3.70;;
72354;SDS011;60314;55.040;73.076;2023-05-07T10:24:50;9.38;;;2.38;;
72354;SDS011;60314;55.040;73.076;2023-05-07T10:30:17;6.68;;;1.83;;
72354;SDS011;60314;55.040;73.076;2023-05-07T10:35:46;9.75;;;2.75;;
72354;SDS011;60314;55.040;73.076;2023-05-07T10:41:09;6.60;;;2.42;;
72354;SDS011;60314;55.040;73.076;2023-05-07T10:46:33;10.00;;;2.10;;
72354;SDS011;60314;55.040;73.076;2023-05-07T10:52:11;6.28;;;2.17;;
72354;SDS011;60314;55.040;73.076;2023-05-07T10:57:35;9.18;;;2.60;;
72354;SDS011;60314;55.040;73.076;2023-05-07T11:20:17;7.20;;;2.80;;
72354;SDS011;60314;55.040;73.076;2023-05-07T11:25:48;14.43;;;3.28;;
72354;SDS011;60314;55.040;73.076;2023-05-07T11:31:13;10.63;;;3.33;;
72354;SDS011;60314;55.040;73.076;2023-05-07T11:36:34;10.00;;;3.10;;
72354;SDS011;60314;55.040;73.076;2023-05-07T11:42:02;12.98;;;3.63;;
72354;SDS011;60314;55.040;73.076;2023-05-07T11:47:22;13.13;;;3.83;;
72354;SDS011;60314;55.040;73.076;2023-05-07T11:52:24;10.60;;;3.13;;
72354;SDS011;60314;55.040;73.076;2023-05-07T11:57:26;11.27;;;3.75;;
72354;SDS011;60314;55.040;73.076;2023-05-07T12:02:46;11.02;;;3.20;;
72354;SDS011;60314;55.040;73.076;2023-05-07T12:08:06;10.32;;;3.58;;
72354;SDS011;60314;55.040;73.076;2023-05-07T12:13:26;11.23;;;3.72;;
72354;SDS011;60314;55.040;73.076;2023-05-07T12:18:46;11.68;;;3.20;;
72354;SDS011;60314;55.040;73.076;2023-05-07T12:24:07;12.50;;;3.17;;
72354;SDS011;60314;55.040;73.076;2023-05-07T12:29:27;12.63;;;3.40;;
72354;SDS011;60314;55.040;73.076;2023-05-07T12:34:51;12.18;;;3.53;;
72354;SDS011;60314;55.040;73.076;2023-05-07T12:40:13;8.63;;;3.70;;
72354;SDS011;60314;55.040;73.076;2023-05-07T12:45:37;8.23;;;3.40;;
72354;SDS011;60314;55.040;73.076;2023-05-07T12:51:00;11.02;;;3.65;;
72354;SDS011;60314;55.040;73.076;2023-05-07T12:56:21;16.48;;;3.63;;
72354;SDS011;60314;55.040;73.076;2023-05-07T13:01:28;9.23;;;3.40;;
72354;SDS011;60314;55.040;73.076;2023-05-07T13:06:49;10.45;;;3.30;;
72354;SDS011;60314;55.040;73.076;2023-05-07T13:12:09;14.68;;;3.78;;
72354;SDS011;60314;55.040;73.076;2023-05-07T13:17:29;8.63;;;3.63;;
72354;SDS011;60314;55.040;73.076;2023-05-07T13:22:50;10.18;;;3.53;;
72354;SDS011;60314;55.040;73.076;2023-05-07T13:28:10;11.00;;;3.38;;
72354;SDS011;60314;55.040;73.076;2023-05-07T13:33:30;10.38;;;3.97;;
72354;SDS011;60314;55.040;73.076;2023-05-07T13:38:50;12.88;;;4.13;;
72354;SDS011;60314;55.040;73.076;2023-05-07T13:44:10;21.07;;;4.70;;
72354;SDS011;60314;55.040;73.076;2023-05-07T13:49:30;20.58;;;5.32;;
72354;SDS011;60314;55.040;73.076;2023-05-07T13:54:50;20.20;;;5.20;;
72354;SDS011;60314;55.040;73.076;2023-05-07T14:00:11;14.30;;;5.40;;
72354;SDS011;60314;55.040;73.076;2023-05-07T14:05:16;11.93;;;5.28;;
72354;SDS011;60314;55.040;73.076;2023-05-07T14:10:36;14.65;;;5.47;;
72354;SDS011;60314;55.040;73.076;2023-05-07T14:15:56;18.23;;;4.63;;
72354;SDS011;60314;55.040;73.076;2023-05-07T14:21:17;14.02;;;5.53;;
72354;SDS011;60314;55.040;73.076;2023-05-07T14:26:36;13.20;;;4.93;;
72354;SDS011;60314;55.040;73.076;2023-05-07T14:31:57;15.53;;;6.17;;
72354;SDS011;60314;55.040;73.076;2023-05-07T14:37:17;19.50;;;7.97;;
72354;SDS011;60314;55.040;73.076;2023-05-07T14:42:38;27.02;;;7.82;;
72354;SDS011;60314;55.040;73.076;2023-05-07T14:47:59;28.80;;;8.75;;
72354;SDS011;60314;55.040;73.076;2023-05-07T14:53:19;21.70;;;6.85;;
72354;SDS011;60314;55.040;73.076;2023-05-07T14:58:39;21.98;;;6.47;;
72354;SDS011;60314;55.040;73.076;2023-05-07T15:03:59;27.67;;;7.43;;
72354;SDS011;60314;55.040;73.076;2023-05-07T15:09:00;25.23;;;8.70;;
72354;SDS011;60314;55.040;73.076;2023-05-07T15:14:20;23.63;;;7.72;;
72354;SDS011;60314;55.040;73.076;2023-05-07T15:19:41;21.83;;;6.75;;
72354;SDS011;60314;55.040;73.076;2023-05-07T15:25:01;19.17;;;6.70;;
72354;SDS011;60314;55.040;73.076;2023-05-07T15:30:23;24.17;;;6.88;;
72354;SDS011;60314;55.040;73.076;2023-05-07T15:35:43;28.83;;;6.72;;
72354;SDS011;60314;55.040;73.076;2023-05-07T15:41:04;17.45;;;6.70;;
72354;SDS011;60314;55.040;73.076;2023-05-07T15:46:24;20.23;;;5.75;;
72354;SDS011;60314;55.040;73.076;2023-05-07T15:51:45;15.45;;;5.10;;
72354;SDS011;60314;55.040;73.076;2023-05-07T15:57:05;17.05;;;5.47;;
72354;SDS011;60314;55.040;73.076;2023-05-07T16:02:25;15.32;;;5.20;;
72354;SDS011;60314;55.040;73.076;2023-05-07T16:07:45;13.18;;;4.82;;
72354;SDS011;60314;55.040;73.076;2023-05-07T16:12:47;15.27;;;5.57;;
72354;SDS011;60314;55.040;73.076;2023-05-07T16:18:07;14.18;;;5.38;;
72354;SDS011;60314;55.040;73.076;2023-05-07T16:23:27;12.82;;;4.72;;
72354;SDS011;60314;55.040;73.076;2023-05-07T16:28:47;15.18;;;5.28;;
72354;SDS011;60314;55.040;73.076;2023-05-07T16:34:07;18.02;;;6.35;;
72354;SDS011;60314;55.040;73.076;2023-05-07T16:39:27;19.90;;;6.40;;
72354;SDS011;60314;55.040;73.076;2023-05-07T16:44:47;18.42;;;6.57;;
72354;SDS011;60314;55.040;73.076;2023-05-07T16:50:08;21.42;;;6.20;;
72354;SDS011;60314;55.040;73.076;2023-05-07T16:55:28;20.67;;;6.25;;
72354;SDS011;60314;55.040;73.076;2023-05-07T17:00:53;17.58;;;6.47;;
72354;SDS011;60314;55.040;73.076;2023-05-07T17:06:14;14.77;;;5.78;;
72354;SDS011;60314;55.040;73.076;2023-05-07T17:11:34;15.82;;;6.57;;
72354;SDS011;60314;55.040;73.076;2023-05-07T17:16:35;14.90;;;6.22;;
72354;SDS011;60314;55.040;73.076;2023-05-07T17:21:37;14.55;;;5.85;;
72354;SDS011;60314;55.040;73.076;2023-05-07T17:26:56;19.65;;;5.30;;
72354;SDS011;60314;55.040;73.076;2023-05-07T17:32:16;14.65;;;4.07;;
72354;SDS011;60314;55.040;73.076;2023-05-07T17:37:36;23.27;;;5.22;;
72354;SDS011;60314;55.040;73.076;2023-05-07T17:42:56;18.40;;;5.75;;
72354;SDS011;60314;55.040;73.076;2023-05-07T17:48:16;18.95;;;5.22;;
72354;SDS011;60314;55.040;73.076;2023-05-07T17:53:36;29.08;;;5.32;;
72354;SDS011;60314;55.040;73.076;2023-05-07T17:58:56;18.70;;;5.38;;
72354;SDS011;60314;55.040;73.076;2023-05-07T18:04:17;14.80;;;4.65;;
72354;SDS011;60314;55.040;73.076;2023-05-07T18:09:39;21.83;;;4.88;;
72354;SDS011;60314;55.040;73.076;2023-05-07T18:14:59;19.20;;;4.60;;
72354;SDS011;60314;55.040;73.076;2023-05-07T18:20:19;17.05;;;5.22;;
72354;SDS011;60314;55.040;73.076;2023-05-07T18:25:20;16.85;;;4.75;;
72354;SDS011;60314;55.040;73.076;2023-05-07T18:30:40;19.08;;;4.43;;
72354;SDS011;60314;55.040;73.076;2023-05-07T18:36:00;13.32;;;4.95;;
72354;SDS011;60314;55.040;73.076;2023-05-07T18:41:20;22.42;;;5.05;;
72354;SDS011;60314;55.040;73.076;2023-05-07T18:46:40;17.80;;;5.20;;
72354;SDS011;60314;55.040;73.076;2023-05-07T18:52:01;19.75;;;5.88;;
72354;SDS011;60314;55.040;73.076;2023-05-07T18:57:21;23.85;;;5.75;;
72354;SDS011;60314;55.040;73.076;2023-05-07T19:02:41;17.05;;;5.75;;
72354;SDS011;60314;55.040;73.076;2023-05-07T19:08:01;19.27;;;5.65;;
72354;SDS011;60314;55.040;73.076;2023-05-07T19:13:21;19.80;;;5.68;;
72354;SDS011;60314;55.040;73.076;2023-05-07T19:18:45;21.27;;;6.57;;
72354;SDS011;60314;55.040;73.076;2023-05-07T19:24:06;22.83;;;5.60;;
72354;SDS011;60314;55.040;73.076;2023-05-07T19:29:08;20.98;;;5.80;;
72354;SDS011;60314;55.040;73.076;2023-05-07T19:34:28;15.57;;;5.57;;
72354;SDS011;60314;55.040;73.076;2023-05-07T19:39:51;23.27;;;6.43;;
72354;SDS011;60314;55.040;73.076;2023-05-07T19:45:13;15.55;;;5.68;;
72354;SDS011;60314;55.040;73.076;2023-05-07T19:50:34;18.17;;;6.15;;
72354;SDS011;60314;55.040;73.076;2023-05-07T19:56:01;26.25;;;6.60;;
72354;SDS011;60314;55.040;73.076;2023-05-07T20:01:22;20.60;;;5.55;;
72354;SDS011;60314;55.040;73.076;2023-05-07T20:06:44;16.88;;;5.82;;
72354;SDS011;60314;55.040;73.076;2023-05-07T20:12:04;20.85;;;6.10;;
72354;SDS011;60314;55.040;73.076;2023-05-07T20:17:23;18.13;;;6.03;;
72354;SDS011;60314;55.040;73.076;2023-05-07T20:22:43;20.67;;;5.70;;
72354;SDS011;60314;55.040;73.076;2023-05-07T20:28:03;19.17;;;5.93;;
72354;SDS011;60314;55.040;73.076;2023-05-07T20:33:04;15.25;;;5.38;;
72354;SDS011;60314;55.040;73.076;2023-05-07T20:38:07;14.25;;;5.57;;
72354;SDS011;60314;55.040;73.076;2023-05-07T20:43:08;22.10;;;6.30;;
72354;SDS011;60314;55.040;73.076;2023-05-07T20:48:29;15.85;;;5.20;;
72354;SDS011;60314;55.040;73.076;2023-05-07T20:53:49;18.88;;;5.30;;
72354;SDS011;60314;55.040;73.076;2023-05-07T20:59:08;16.30;;;5.15;;
72354;SDS011;60314;55.040;73.076;2023-05-07T21:04:29;15.80;;;5.45;;
72354;SDS011;60314;55.040;73.076;2023-05-07T21:09:50;20.45;;;7.07;;
72354;SDS011;60314;55.040;73.076;2023-05-07T21:15:10;13.20;;;5.53;;
72354;SDS011;60314;55.040;73.076;2023-05-07T21:20:30;16.70;;;5.88;;
72354;SDS011;60314;55.040;73.076;2023-05-07T21:25:50;15.88;;;5.72;;
72354;SDS011;60314;55.040;73.076;2023-05-07T21:31:10;18.98;;;5.75;;
72354;SDS011;60314;55.040;73.076;2023-05-07T21:36:30;15.53;;;5.73;;
72354;SDS011;60314;55.040;73.076;2023-05-07T21:41:50;18.23;;;5.68;;
72354;SDS011;60314;55.040;73.076;2023-05-07T21:46:52;13.80;;;5.27;;
72354;SDS011;60314;55.040;73.076;2023-05-07T21:52:15;16.42;;;6.18;;
72354;SDS011;60314;55.040;73.076;2023-05-07T21:57:35;22.75;;;6.72;;
72354;SDS011;60314;55.040;73.076;2023-05-07T22:02:56;20.05;;;5.75;;
72354;SDS011;60314;55.040;73.076;2023-05-07T22:08:16;18.20;;;5.78;;
72354;SDS011;60314;55.040;73.076;2023-05-07T22:13:36;18.50;;;6.20;;
72354;SDS011;60314;55.040;73.076;2023-05-07T22:18:56;18.70;;;6.28;;
72354;SDS011;60314;55.040;73.076;2023-05-07T22:24:16;20.40;;;6.13;;
72354;SDS011;60314;55.040;73.076;2023-05-07T22:29:36;16.87;;;6.07;;
72354;SDS011;60314;55.040;73.076;2023-05-07T22:34:57;18.52;;;5.95;;
72354;SDS011;60314;55.040;73.076;2023-05-07T22:40:17;18.10;;;5.85;;
72354;SDS011;60314;55.040;73.076;2023-05-07T22:45:37;23.08;;;6.20;;
72354;SDS011;60314;55.040;73.076;2023-05-07T22:50:39;21.88;;;6.45;;
72354;SDS011;60314;55.040;73.076;2023-05-07T22:55:40;25.42;;;6.00;;
72354;SDS011;60314;55.040;73.076;2023-05-07T23:01:00;18.75;;;7.10;;
72354;SDS011;60314;55.040;73.076;2023-05-07T23:06:20;21.52;;;6.90;;
72354;SDS011;60314;55.040;73.076;2023-05-07T23:11:40;17.67;;;6.22;;
72354;SDS011;60314;55.040;73.076;2023-05-07T23:17:01;15.93;;;6.60;;
72354;SDS011;60314;55.040;73.076;2023-05-07T23:22:21;17.67;;;6.40;;
72354;SDS011;60314;55.040;73.076;2023-05-07T23:27:41;17.47;;;6.73;;
72354;SDS011;60314;55.040;73.076;2023-05-07T23:33:01;23.48;;;6.57;;
72354;SDS011;60314;55.040;73.076;2023-05-07T23:38:21;23.27;;;6.03;;
72354;SDS011;60314;55.040;73.076;2023-05-07T23:43:41;17.83;;;6.95;;
72354;SDS011;60314;55.040;73.076;2023-05-07T23:49:01;15.98;;;6.45;;
72354;SDS011;60314;55.040;73.076;2023-05-07T23:54:21;13.98;;;6.38;;
72354;SDS011;60314;55.040;73.076;2023-05-07T23:59:22;19.73;;;6.78;;
